Time;durP1;ratioP1;P1;durP2;ratioP2;P2;SDS_P1;SDS_P2;PMS_P1;PMS_P2;Temp;Humidity;BMP_temperature;BMP_pressure;BME280_temperature;BME280_humidity;BME280_pressure;Samples;Min_cycle;Max_cycle;Signal;HPM_P1;HPM_P2
2021/01/24 00:01:20;;;;;;;7.50;3.90;;;282.10;1664.00;;;;;;5115497;27;20035;-57
2021/01/24 00:03:46;;;;;;;6.57;3.70;;;282.00;1664.00;;;;;;5114090;28;20031;-59
2021/01/24 00:06:12;;;;;;;6.25;2.83;;;282.00;1638.40;;;;;;5113715;28;20044;-59
2021/01/24 00:08:38;;;;;;;7.80;3.05;;;281.90;1664.00;;;;;;5113969;28;20456;-59
2021/01/24 00:11:04;;;;;;;9.18;3.45;;;281.80;1664.00;;;;;;5113960;28;20032;-59
2021/01/24 00:13:29;;;;;;;7.20;3.42;;;281.80;1664.00;;;;;;5121868;27;20031;-60
2021/01/24 00:15:55;;;;;;;6.22;3.05;;;281.80;1638.40;;;;;;5113509;28;20034;-60
2021/01/24 00:18:21;;;;;;;6.82;3.33;;;281.70;1638.40;;;;;;5113777;28;20102;-60
2021/01/24 00:20:46;;;;;;;6.43;3.03;;;281.80;1638.40;;;;;;5113887;28;20023;-59
2021/01/24 00:23:12;;;;;;;5.95;3.55;;;281.70;1638.40;;;;;;5113417;28;20054;-60
2021/01/24 00:25:38;;;;;;;5.20;2.78;;;281.70;1638.40;;;;;;5113496;28;20027;-60
2021/01/24 00:28:03;;;;;;;8.40;3.35;;;281.70;1638.40;;;;;;5119332;27;20090;-60
2021/01/24 00:30:29;;;;;;;5.70;2.80;;;281.70;1664.00;;;;;;5113418;28;20051;-60
2021/01/24 00:32:55;;;;;;;8.18;4.43;;;281.60;1638.40;;;;;;5113109;28;20027;-59
2021/01/24 00:35:20;;;;;;;7.22;2.97;;;256.90;1638.40;;;;;;5113470;28;20035;-59
2021/01/24 00:37:46;;;;;;;5.57;3.08;;;256.90;1638.40;;;;;;5113217;28;20024;-59
2021/01/24 00:40:12;;;;;;;7.95;2.92;;;256.90;1638.40;;;;;;5113374;28;20076;-59
2021/01/24 00:42:38;;;;;;;8.15;3.15;;;256.90;1612.80;;;;;;5113271;28;20016;-60
2021/01/24 00:45:06;;;;;;;7.85;2.90;;;256.90;1612.80;;;;;;5113470;28;20043;-59
2021/01/24 00:47:32;;;;;;;6.00;3.58;;;256.90;1612.80;;;;;;5127954;27;20042;-59
2021/01/24 00:50:01;;;;;;;4.22;2.20;;;256.90;1587.20;;;;;;5114277;28;20024;-59
2021/01/24 00:52:27;;;;;;;;;;;256.90;1587.20;;;;;;5113583;28;20023;-58
2021/01/24 00:54:52;;;;;;;5.63;2.20;;;256.80;1612.80;;;;;;5124548;27;19914;-58
2021/01/24 00:57:18;;;;;;;5.03;2.58;;;256.90;1587.20;;;;;;5113295;28;20096;-58
2021/01/24 00:59:44;;;;;;;6.90;2.97;;;256.80;1612.80;;;;;;5113235;28;20023;-59
2021/01/24 01:02:09;;;;;;;6.03;2.60;;;256.80;1587.20;;;;;;5113307;28;20110;-59
2021/01/24 01:04:35;;;;;;;5.00;2.67;;;256.80;1587.20;;;;;;5113414;28;20128;-59
2021/01/24 01:07:01;;;;;;;4.82;2.20;;;256.80;1587.20;;;;;;5113955;28;20106;-59
2021/01/24 01:09:26;;;;;;;7.10;2.42;;;256.70;1612.80;;;;;;5113248;28;20068;-59
2021/01/24 01:11:52;;;;;;;3.95;2.35;;;256.70;1587.20;;;;;;5113638;28;20019;-59
2021/01/24 01:14:18;;;;;;;4.40;2.40;;;256.80;1587.20;;;;;;5113230;28;20485;-59
2021/01/24 01:16:44;;;;;;;7.45;3.13;;;256.80;1587.20;;;;;;5113657;28;20106;-59
2021/01/24 01:19:09;;;;;;;6.30;2.40;;;256.70;1612.80;;;;;;5112936;28;20063;-60
2021/01/24 01:21:35;;;;;;;3.75;2.55;;;256.70;1612.80;;;;;;5125506;28;20023;-60
2021/01/24 01:24:01;;;;;;;5.40;2.40;;;256.80;1612.80;;;;;;5131305;28;20447;-60
2021/01/24 01:26:28;;;;;;;6.82;2.78;;;256.70;1612.80;;;;;;5130514;28;20059;-59
2021/01/24 01:28:54;;;;;;;5.95;2.10;;;256.70;1612.80;;;;;;5131926;28;20011;-59
2021/01/24 01:31:20;;;;;;;3.83;1.83;;;256.70;1612.80;;;;;;5128935;28;20072;-59
2021/01/24 01:33:45;;;;;;;3.00;1.95;;;256.70;1612.80;;;;;;5129540;28;20019;-59
2021/01/24 01:36:11;;;;;;;4.95;2.28;;;256.70;1612.80;;;;;;5130651;28;20117;-59
2021/01/24 01:38:38;;;;;;;4.07;1.95;;;256.60;1638.40;;;;;;5129517;28;20140;-60
2021/01/24 01:41:04;;;;;;;4.40;2.25;;;256.70;1638.40;;;;;;5131900;28;20078;-59
2021/01/24 01:43:30;;;;;;;3.92;1.80;;;256.70;1638.40;;;;;;5131018;28;20492;-60
2021/01/24 01:45:55;;;;;;;2.53;1.85;;;256.70;1638.40;;;;;;5133010;28;20130;-60
2021/01/24 01:48:21;;;;;;;3.13;1.70;;;256.70;1638.40;;;;;;5131348;28;20091;-59
2021/01/24 01:50:47;;;;;;;4.55;1.90;;;256.70;1612.80;;;;;;5129729;28;20418;-60
2021/01/24 01:53:13;;;;;;;2.88;1.90;;;256.80;1612.80;;;;;;5131004;28;20016;-60
2021/01/24 01:55:39;;;;;;;3.15;1.73;;;256.80;1612.80;;;;;;5125750;28;20413;-60
2021/01/24 01:58:05;;;;;;;2.63;1.73;;;256.80;1612.80;;;;;;5112663;28;20504;-60
2021/01/24 02:00:30;;;;;;;2.67;1.63;;;256.80;1612.80;;;;;;5112600;28;20023;-60
2021/01/24 02:03:17;;;;;;;2.75;1.77;;;256.80;1612.80;;;;;;5112247;28;20020;-60
2021/01/24 02:06:06;;;;;;;3.25;1.70;;;256.90;1612.80;;;;;;5112217;28;20086;-64
2021/01/24 02:08:40;;;;;;;2.40;1.38;;;256.90;1587.20;;;;;;5112627;28;20410;-60
2021/01/24 02:11:37;;;;;;;2.20;1.45;;;281.60;1612.80;;;;;;5112522;28;20427;-60
2021/01/24 02:14:08;;;;;;;3.63;1.67;;;281.60;1612.80;;;;;;5030220;28;20045;-61
2021/01/24 02:16:38;;;;;;;3.63;1.70;;;281.60;1587.20;;;;;;5030133;28;20037;-60
2021/01/24 02:19:07;;;;;;;4.40;1.55;;;281.70;1587.20;;;;;;5033209;28;20544;-60
2021/01/24 02:21:36;;;;;;;2.97;1.40;;;281.70;1587.20;;;;;;5032094;28;20048;-60
2021/01/24 02:24:11;;;;;;;3.28;1.90;;;281.80;1587.20;;;;;;5033348;28;20206;-60
2021/01/24 02:27:27;;;;;;;2.83;1.75;;;281.70;1587.20;;;;;;5020607;28;20046;-58
2021/01/24 02:30:17;;;;;;;2.47;1.55;;;281.80;1587.20;;;;;;5006312;28;20034;-56
2021/01/24 02:32:45;;;;;;;5.10;1.67;;;281.80;1561.60;;;;;;5012506;28;20033;-57
2021/01/24 02:35:12;;;;;;;2.60;1.35;;;281.70;1587.20;;;;;;5006214;28;20025;-57
2021/01/24 02:37:39;;;;;;;3.20;1.50;;;281.70;1561.60;;;;;;5012631;28;20030;-57
2021/01/24 02:40:06;;;;;;;2.50;1.90;;;281.70;1587.20;;;;;;5012857;28;20029;-58
2021/01/24 02:42:32;;;;;;;4.05;1.50;;;281.70;1587.20;;;;;;5010624;28;20034;-57
2021/01/24 02:44:58;;;;;;;2.53;1.90;;;281.70;1587.20;;;;;;5005535;28;20045;-58
2021/01/24 02:47:25;;;;;;;1.80;1.23;;;281.60;1587.20;;;;;;5007741;28;20034;-58
2021/01/24 02:49:52;;;;;;;4.38;1.70;;;256.90;1561.60;;;;;;5011828;28;20048;-57
2021/01/24 02:52:18;;;;;;;4.82;1.80;;;281.60;1587.20;;;;;;5068219;28;20017;-58
2021/01/24 02:54:44;;;;;;;3.40;1.88;;;281.60;1561.60;;;;;;5068587;28;20114;-58
2021/01/24 02:57:10;;;;;;;2.15;1.23;;;281.60;1587.20;;;;;;5070577;28;20099;-57
2021/01/24 02:59:36;;;;;;;3.15;1.52;;;281.60;1561.60;;;;;;5071820;28;20059;-57
2021/01/24 03:02:03;;;;;;;3.88;1.35;;;281.60;1561.60;;;;;;5047376;28;20029;-59
2021/01/24 03:04:28;;;;;;;1.83;1.33;;;281.70;1561.60;;;;;;5098502;27;20044;-61
2021/01/24 03:06:54;;;;;;;2.97;2.03;;;281.70;1561.60;;;;;;5116657;27;20042;-59
2021/01/24 03:09:20;;;;;;;2.38;1.65;;;281.70;1561.60;;;;;;5112843;28;20034;-59
2021/01/24 03:11:48;;;;;;;1.65;1.40;;;281.70;1536.00;;;;;;5114506;28;20020;-60
2021/01/24 03:14:24;;;;;;;3.78;1.80;;;281.70;1561.60;;;;;;5113867;28;20016;-61
2021/01/24 03:16:54;;;;;;;2.83;1.50;;;281.70;1536.00;;;;;;5114097;28;20072;-62
2021/01/24 03:19:22;;;;;;;3.60;1.60;;;281.60;1561.60;;;;;;5106515;27;20364;-61
2021/01/24 03:21:50;;;;;;;2.00;1.33;;;281.60;1561.60;;;;;;5134440;27;20083;-60
2021/01/24 03:24:17;;;;;;;2.45;1.63;;;281.60;1561.60;;;;;;5134632;27;20081;-57
2021/01/24 03:26:44;;;;;;;2.72;1.63;;;281.60;1561.60;;;;;;5135677;27;20019;-57
2021/01/24 03:29:10;;;;;;;2.35;1.42;;;256.90;1536.00;;;;;;5134950;27;20022;-57
2021/01/24 03:31:38;;;;;;;2.97;1.23;;;256.80;1536.00;;;;;;5135567;27;20023;-57
2021/01/24 03:34:09;;;;;;;2.33;1.35;;;256.80;1536.00;;;;;;5135246;27;20472;-56
2021/01/24 03:36:35;;;;;;;3.60;1.73;;;256.80;1561.60;;;;;;5135293;27;20074;-57
2021/01/24 03:39:01;;;;;;;3.42;1.80;;;256.70;1561.60;;;;;;5135033;27;20023;-57
2021/01/24 03:41:26;;;;;;;3.25;1.80;;;256.70;1561.60;;;;;;5128812;27;20020;-57
2021/01/24 03:43:52;;;;;;;3.55;1.83;;;256.70;1536.00;;;;;;5128156;27;20020;-57
2021/01/24 03:46:17;;;;;;;2.33;1.45;;;256.70;1561.60;;;;;;5135470;27;20084;-58
2021/01/24 03:48:43;;;;;;;1.58;1.27;;;256.70;1536.00;;;;;;5135436;27;20023;-58
2021/01/24 03:51:09;;;;;;;4.07;1.40;;;256.70;1536.00;;;;;;5133308;27;20034;-56
2021/01/24 03:53:34;;;;;;;2.88;1.38;;;256.70;1536.00;;;;;;5103167;27;20055;-56
2021/01/24 03:56:00;;;;;;;1.85;1.42;;;256.60;1536.00;;;;;;5135004;27;20027;-58
2021/01/24 03:58:26;;;;;;;4.40;1.50;;;256.60;1536.00;;;;;;5134781;27;20030;-58
2021/01/24 04:00:51;;;;;;;2.85;1.27;;;256.50;1536.00;;;;;;5134544;27;20027;-57
2021/01/24 04:03:17;;;;;;;3.70;1.70;;;256.50;1536.00;;;;;;5134656;27;20015;-57
2021/01/24 04:05:43;;;;;;;3.30;1.55;;;256.40;1536.00;;;;;;5134345;27;20055;-56
2021/01/24 04:08:08;;;;;;;3.90;1.52;;;256.40;1561.60;;;;;;5134691;27;20551;-58
2021/01/24 04:10:34;;;;;;;2.28;1.20;;;256.40;1536.00;;;;;;5134525;27;20038;-58
2021/01/24 04:13:00;;;;;;;6.88;1.40;;;256.30;1561.60;;;;;;5120686;27;20106;-57
2021/01/24 04:15:25;;;;;;;4.13;1.60;;;256.20;1561.60;;;;;;5134109;27;20517;-58
2021/01/24 04:17:51;;;;;;;2.53;1.23;;;256.20;1561.60;;;;;;5134341;27;20027;-58
2021/01/24 04:20:17;;;;;;;2.03;1.42;;;256.10;1587.20;;;;;;5134580;27;20060;-58
2021/01/24 04:22:42;;;;;;;2.50;1.45;;;256.10;1561.60;;;;;;5117079;27;20440;-58
2021/01/24 04:25:11;;;;;;;3.40;1.50;;;256.10;1561.60;;;;;;5113386;28;20027;-58
2021/01/24 04:27:37;;;;;;;2.08;1.38;;;256.00;1561.60;;;;;;5113623;28;20059;-59
2021/01/24 04:30:03;;;;;;;2.75;1.73;;;256.00;1587.20;;;;;;5113665;28;20104;-57
2021/01/24 04:32:29;;;;;;;3.40;1.85;;;256.00;1587.20;;;;;;5113586;28;20495;-58
2021/01/24 04:34:54;;;;;;;2.85;1.40;;;256.00;1587.20;;;;;;5113367;28;20023;-58
2021/01/24 04:37:20;;;;;;;2.90;1.20;;;231.20;1587.20;;;;;;5113380;28;20461;-58
2021/01/24 04:39:46;;;;;;;2.40;1.55;;;231.30;1587.20;;;;;;5112706;28;20073;-57
2021/01/24 04:42:11;;;;;;;1.85;1.23;;;231.30;1587.20;;;;;;5113354;28;20038;-57
2021/01/24 04:44:37;;;;;;;1.75;1.38;;;231.30;1561.60;;;;;;5113128;28;20043;-57
2021/01/24 04:47:05;;;;;;;1.83;0.98;;;231.30;1561.60;;;;;;5113428;28;20023;-57
2021/01/24 04:49:30;;;;;;;2.28;1.05;;;231.30;1561.60;;;;;;5113413;28;20088;-58
2021/01/24 04:51:56;;;;;;;1.60;1.05;;;231.30;1561.60;;;;;;5113064;28;20024;-58
2021/01/24 04:54:22;;;;;;;3.95;1.40;;;231.30;1561.60;;;;;;5113611;28;20472;-58
2021/01/24 04:56:48;;;;;;;2.20;1.70;;;231.30;1561.60;;;;;;5113092;28;20016;-57
2021/01/24 04:59:14;;;;;;;3.10;1.20;;;231.20;1561.60;;;;;;5113394;28;20102;-58
2021/01/24 05:01:42;;;;;;;4.30;1.38;;;231.20;1561.60;;;;;;5113130;28;20032;-58
2021/01/24 05:04:08;;;;;;;5.85;1.92;;;231.20;1587.20;;;;;;5112890;28;20106;-58
2021/01/24 05:06:34;;;;;;;4.82;1.85;;;231.20;1587.20;;;;;;5095038;28;20482;-57
2021/01/24 05:09:00;;;;;;;4.05;1.63;;;231.20;1587.20;;;;;;5112951;28;20016;-58
2021/01/24 05:11:26;;;;;;;3.00;1.67;;;231.20;1561.60;;;;;;5113027;28;20027;-57
2021/01/24 05:13:52;;;;;;;3.30;1.75;;;231.30;1561.60;;;;;;5112964;28;20016;-57
2021/01/24 05:18:56;;;;;;;5.23;1.40;;;256.00;1536.00;;;;;;5184035;22;20060;-57
2021/01/24 05:21:22;;;;;;;5.47;2.17;;;256.00;1561.60;;;;;;5107807;22;20671;-57
2021/01/24 05:23:48;;;;;;;4.28;2.10;;;256.10;1536.00;;;;;;5108821;28;20583;-58
2021/01/24 05:28:48;;;;;;;5.22;2.00;;;256.10;1536.00;;;;;;5082967;28;20044;-58
2021/01/24 05:31:14;;;;;;;7.50;2.00;;;256.10;1536.00;;;;;;5082154;28;20024;-58
2021/01/24 05:33:46;;;;;;;3.50;1.83;;;256.10;1536.00;;;;;;5091489;28;20016;-58
2021/01/24 05:36:12;;;;;;;4.53;1.48;;;256.10;1536.00;;;;;;5091820;28;20059;-58
2021/01/24 05:38:38;;;;;;;3.25;1.77;;;256.20;1510.40;;;;;;5091723;28;20034;-59
2021/01/24 05:41:05;;;;;;;3.03;1.55;;;256.20;1510.40;;;;;;5097074;22;21588;-62
2021/01/24 05:43:36;;;;;;;1.90;1.23;;;256.30;1510.40;;;;;;5061392;28;20120;-58
2021/01/24 05:46:04;;;;;;;3.08;1.55;;;256.30;1484.80;;;;;;5057595;28;20037;-58
2021/01/24 05:48:30;;;;;;;2.13;1.40;;;256.30;1484.80;;;;;;5071368;28;20028;-58
2021/01/24 05:50:56;;;;;;;3.22;1.30;;;256.40;1484.80;;;;;;5071519;28;20143;-57
2021/01/24 05:53:23;;;;;;;3.95;1.50;;;256.50;1459.20;;;;;;5074139;28;20040;-57
2021/01/24 05:55:49;;;;;;;4.38;1.40;;;256.70;1459.20;;;;;;5075518;28;20425;-58
2021/01/24 05:58:23;;;;;;;3.50;1.40;;;256.60;1459.20;;;;;;5075151;28;20047;-57
2021/01/24 06:00:50;;;;;;;2.72;1.30;;;256.60;1459.20;;;;;;5074830;28;20020;-57
2021/01/24 06:03:17;;;;;;;3.10;1.42;;;256.70;1459.20;;;;;;5075068;28;20024;-57
2021/01/24 06:05:43;;;;;;;5.43;1.23;;;256.80;1433.60;;;;;;5075100;28;20086;-58
2021/01/24 06:08:11;;;;;;;4.63;1.80;;;281.60;1433.60;;;;;;5074918;28;20024;-57
2021/01/24 06:10:37;;;;;;;5.57;1.73;;;281.60;1459.20;;;;;;5074977;28;20028;-58
2021/01/24 06:13:05;;;;;;;6.45;2.05;;;281.60;1433.60;;;;;;5074519;28;20500;-58
2021/01/24 06:15:32;;;;;;;4.28;1.88;;;281.60;1433.60;;;;;;5073591;28;20032;-58
2021/01/24 06:17:59;;;;;;;6.03;1.95;;;281.60;1433.60;;;;;;5074019;28;20033;-57
2021/01/24 06:20:39;;;;;;;3.80;2.05;;;281.70;1433.60;;;;;;5075241;28;20017;-63
2021/01/24 06:23:19;;;;;;;3.15;1.58;;;281.60;1433.60;;;;;;5074545;28;20025;-58
2021/01/24 06:25:48;;;;;;;5.43;2.13;;;281.70;1433.60;;;;;;5074802;28;20039;-57
2021/01/24 06:28:34;;;;;;;6.95;2.33;;;281.80;1408.00;;;;;;5074236;28;20083;-57
2021/01/24 06:30:59;;;;;;;6.45;2.60;;;281.90;1433.60;;;;;;5074171;28;20072;-57
2021/01/24 06:33:25;;;;;;;6.65;2.55;;;281.90;1408.00;;;;;;5073891;28;20063;-57
2021/01/24 06:36:00;;;;;;;5.05;1.90;;;282.00;1408.00;;;;;;5074326;28;20052;-57
2021/01/24 06:38:33;;;;;;;6.28;1.50;;;282.00;1408.00;;;;;;5074264;28;20019;-57
2021/01/24 06:41:05;;;;;;;4.30;1.83;;;282.10;1408.00;;;;;;5076900;28;20028;-57
2021/01/24 06:43:38;;;;;;;5.22;2.40;;;282.10;1408.00;;;;;;5078863;28;20016;-59
2021/01/24 06:46:24;;;;;;;5.88;2.05;;;282.10;1408.00;;;;;;5057721;28;20032;-57
2021/01/24 06:48:53;;;;;;;3.63;1.67;;;282.20;1382.40;;;;;;4995990;28;20130;-58
2021/01/24 06:51:39;;;;;;;3.83;1.20;;;282.20;1382.40;;;;;;4992514;28;20523;-57
2021/01/24 06:54:24;;;;;;;6.70;1.88;;;282.30;1382.40;;;;;;4992755;28;20034;-57
2021/01/24 06:56:50;;;;;;;3.90;1.85;;;282.30;1356.80;;;;;;4992789;28;20109;-57
2021/01/24 06:59:28;;;;;;;2.75;1.30;;;282.20;1356.80;;;;;;4992721;28;20226;-54
2021/01/24 07:02:34;;;;;;;3.47;1.30;;;282.30;1356.80;;;;;;4992265;28;20029;-55
2021/01/24 07:05:17;;;;;;;6.20;2.28;;;282.40;1356.80;;;;;;5004261;28;20586;-53
2021/01/24 07:07:43;;;;;;;6.25;1.95;;;282.50;1356.80;;;;;;5011848;28;20038;-53
2021/01/24 07:10:30;;;;;;;7.00;2.42;;;307.20;1356.80;;;;;;5010803;28;20040;-54
2021/01/24 07:12:56;;;;;;;5.65;2.10;;;282.50;1356.80;;;;;;5011329;28;20036;-54
2021/01/24 07:15:23;;;;;;;3.42;1.77;;;282.40;1331.20;;;;;;5010990;28;20038;-54
2021/01/24 07:17:59;;;;;;;3.30;2.15;;;282.50;1356.80;;;;;;5003762;28;20122;-54
2021/01/24 07:20:25;;;;;;;3.78;2.25;;;282.50;1331.20;;;;;;4992333;28;20129;-56
2021/01/24 07:22:54;;;;;;;4.57;2.08;;;307.20;1356.80;;;;;;4993402;28;20138;-54
2021/01/24 07:25:20;;;;;;;4.90;1.90;;;307.30;1331.20;;;;;;5008744;28;20041;-55
2021/01/24 07:27:52;;;;;;;4.57;1.85;;;307.30;1331.20;;;;;;5073694;28;20033;-54
2021/01/24 07:30:24;;;;;;;7.85;2.60;;;307.50;1305.60;;;;;;5074660;28;20029;-54
2021/01/24 07:32:49;;;;;;;6.40;2.80;;;307.50;1331.20;;;;;;5074682;28;20021;-53
2021/01/24 07:35:15;;;;;;;6.97;3.28;;;307.40;1331.20;;;;;;5074500;28;20020;-54
2021/01/24 07:37:42;;;;;;;3.47;1.77;;;307.50;1305.60;;;;;;5073978;28;20017;-55
2021/01/24 07:40:08;;;;;;;4.47;2.17;;;307.50;1331.20;;;;;;5073231;28;20482;-54
2021/01/24 07:42:33;;;;;;;5.40;2.60;;;307.40;1331.20;;;;;;5072998;28;20174;-54
2021/01/24 07:45:00;;;;;;;7.95;2.55;;;307.60;1305.60;;;;;;5073268;28;20124;-54
2021/01/24 07:47:25;;;;;;;4.20;2.05;;;307.60;1305.60;;;;;;5073475;28;20028;-53
2021/01/24 07:49:51;;;;;;;3.58;1.98;;;307.70;1280.00;;;;;;5072689;28;20020;-55
2021/01/24 07:52:17;;;;;;;6.03;2.80;;;307.60;1305.60;;;;;;5073313;28;20035;-54
2021/01/24 07:54:43;;;;;;;3.40;2.03;;;307.70;1280.00;;;;;;5073051;28;20028;-57
2021/01/24 07:57:09;;;;;;;6.25;2.60;;;307.80;1254.40;;;;;;5073267;28;20020;-53
2021/01/24 07:59:36;;;;;;;4.15;2.35;;;307.80;1254.40;;;;;;5072632;28;20039;-57
2021/01/24 08:02:03;;;;;;;4.18;2.35;;;307.90;1254.40;;;;;;5072882;28;20535;-54
2021/01/24 08:04:29;;;;;;;7.82;2.90;;;308.00;1254.40;;;;;;5072783;28;20040;-53
2021/01/24 08:06:55;;;;;;;4.95;2.80;;;308.00;1228.80;;;;;;5072459;28;20028;-54
2021/01/24 08:09:21;;;;;;;1179.03;646.85;;;332.80;1280.00;;;;;;5072422;28;20078;-53
2021/01/24 08:11:46;;;;;;;18.25;9.02;;;332.90;1254.40;;;;;;5076041;28;20071;-54
2021/01/24 08:14:13;;;;;;;6.38;3.70;;;333.10;1203.20;;;;;;5084431;28;20082;-53
2021/01/24 08:16:42;;;;;;;7.38;2.50;;;333.40;1203.20;;;;;;5081591;28;20025;-53
2021/01/24 08:19:11;;;;;;;7.10;5.68;;;333.60;1177.60;;;;;;5089911;28;20018;-54
2021/01/24 08:21:38;;;;;;;5.50;2.47;;;333.70;1177.60;;;;;;5083091;28;20032;-54
2021/01/24 08:24:05;;;;;;;5.70;3.20;;;358.50;1152.00;;;;;;5072160;28;20031;-53
2021/01/24 08:26:32;;;;;;;7.55;2.30;;;358.60;1152.00;;;;;;5080680;28;20040;-53
2021/01/24 08:28:59;;;;;;;5.30;2.85;;;358.50;1152.00;;;;;;5092552;28;20020;-54
2021/01/24 08:31:25;;;;;;;5.60;3.03;;;358.60;1126.40;;;;;;5093144;28;20024;-54
2021/01/24 08:33:54;;;;;;;5.80;3.00;;;358.50;1152.00;;;;;;5092387;28;20095;-54
2021/01/24 08:36:24;;;;;;;4.68;2.15;;;358.50;1152.00;;;;;;5092969;28;20099;-53
2021/01/24 08:38:50;;;;;;;5.07;2.78;;;358.40;1126.40;;;;;;5080014;28;20020;-53
2021/01/24 08:41:17;;;;;;;7.47;3.10;;;358.40;1152.00;;;;;;5072106;28;20193;-54
2021/01/24 08:43:43;;;;;;;8.23;3.28;;;358.40;1152.00;;;;;;5072092;28;20029;-54
2021/01/24 08:46:26;;;;;;;5.53;3.45;;;358.40;1152.00;;;;;;5072024;28;20036;-53
2021/01/24 08:49:03;;;;;;;6.63;3.17;;;358.40;1126.40;;;;;;5071775;28;20021;-53
2021/01/24 08:51:58;;;;;;;5.70;3.25;;;358.40;1126.40;;;;;;5072219;28;20028;-53
2021/01/24 08:54:24;;;;;;;8.20;4.32;;;358.50;1126.40;;;;;;4980494;28;20030;-52
2021/01/24 08:56:50;;;;;;;10.27;4.10;;;358.60;1126.40;;;;;;4990862;28;20034;-53
2021/01/24 08:59:24;;;;;;;10.57;3.50;;;358.70;1126.40;;;;;;4990413;28;20205;-53
2021/01/24 09:01:52;;;;;;;8.48;3.70;;;358.90;1100.80;;;;;;4990382;28;20033;-53
2021/01/24 09:04:25;;;;;;;6.57;3.50;;;358.90;1100.80;;;;;;4990510;28;20034;-53
2021/01/24 09:07:12;;;;;;;6.50;3.28;;;359.00;1100.80;;;;;;4990712;28;20038;-54
2021/01/24 09:09:41;;;;;;;6.50;2.97;;;359.10;1075.20;;;;;;4990700;28;20027;-53
2021/01/24 09:12:09;;;;;;;6.30;3.45;;;359.10;1075.20;;;;;;4989984;28;20049;-54
2021/01/24 09:14:34;;;;;;;6.90;2.75;;;359.20;1075.20;;;;;;4990621;28;20082;-54
2021/01/24 09:17:06;;;;;;;5.05;2.05;;;384.10;1049.60;;;;;;4990713;28;20038;-53
2021/01/24 09:19:33;;;;;;;6.43;3.35;;;384.20;1024.00;;;;;;4990137;28;20531;-54
2021/01/24 09:21:59;;;;;;;5.57;2.58;;;384.30;1024.00;;;;;;4990548;28;20030;-52
2021/01/24 09:24:25;;;;;;;6.28;2.47;;;384.60;998.40;;;;;;5003784;28;20049;-55
2021/01/24 09:26:51;;;;;;;8.48;2.67;;;384.60;998.40;;;;;;4973292;28;20039;-54
2021/01/24 09:29:17;;;;;;;8.40;2.67;;;384.80;972.80;;;;;;4995022;28;20045;-52
2021/01/24 09:31:43;;;;;;;6.47;3.70;;;384.80;972.80;;;;;;5065316;28;20033;-58
2021/01/24 09:34:09;;;;;;;6.78;3.50;;;409.60;998.40;;;;;;5075513;28;20158;-53
2021/01/24 09:36:35;;;;;;;5.18;3.08;;;409.70;998.40;;;;;;5076000;28;20028;-55
2021/01/24 09:39:01;;;;;;;4.45;1.88;;;409.80;972.80;;;;;;5079127;28;20032;-53
2021/01/24 09:41:27;;;;;;;3.10;2.08;;;409.70;972.80;;;;;;5076321;28;20048;-53
2021/01/24 09:43:53;;;;;;;4.78;1.55;;;409.70;972.80;;;;;;5075729;28;20044;-53
2021/01/24 09:46:18;;;;;;;87.15;66.28;;;384.90;947.20;;;;;;5075863;28;20035;-52
2021/01/24 09:48:44;;;;;;;4.50;3.00;;;409.60;972.80;;;;;;5076192;28;20035;-53
2021/01/24 09:51:10;;;;;;;11.55;7.78;;;409.60;947.20;;;;;;5075132;28;20028;-52
2021/01/24 09:53:36;;;;;;;4.53;2.13;;;409.90;972.80;;;;;;5076572;28;20447;-53
2021/01/24 09:56:06;;;;;;;6.15;1.92;;;410.00;947.20;;;;;;5074713;28;20029;-53
2021/01/24 09:58:33;;;;;;;4.72;2.63;;;410.10;947.20;;;;;;5076237;28;20024;-54
2021/01/24 10:00:59;;;;;;;8.85;3.95;;;410.10;947.20;;;;;;5075584;28;20029;-53
2021/01/24 10:03:24;;;;;;;4.15;2.22;;;410.10;921.60;;;;;;5076648;28;20088;-53
2021/01/24 10:05:51;;;;;;;6.05;4.32;;;410.20;921.60;;;;;;5076033;28;20032;-52
2021/01/24 10:08:17;;;;;;;3.63;2.60;;;410.30;921.60;;;;;;5075486;28;20082;-53
2021/01/24 10:10:45;;;;;;;3.00;2.08;;;410.50;896.00;;;;;;5074075;28;20020;-53
2021/01/24 10:13:12;;;;;;;4.97;2.33;;;435.30;896.00;;;;;;5076980;28;20382;-53
2021/01/24 10:15:39;;;;;;;6.05;3.00;;;435.50;896.00;;;;;;5079278;28;20032;-53
2021/01/24 10:18:04;;;;;;;5.05;2.45;;;435.70;896.00;;;;;;5076707;28;20029;-54
2021/01/24 10:20:30;;;;;;;5.55;2.40;;;435.60;870.40;;;;;;5077515;28;20021;-53
2021/01/24 10:22:56;;;;;;;4.40;2.28;;;435.50;896.00;;;;;;5075177;28;20024;-52
2021/01/24 10:25:22;;;;;;;6.63;2.55;;;435.40;921.60;;;;;;5074987;28;20035;-55
2021/01/24 10:27:47;;;;;;;4.80;2.28;;;435.50;921.60;;;;;;5074363;28;20021;-55
2021/01/24 10:30:14;;;;;;;6.03;2.95;;;435.40;896.00;;;;;;5075940;28;20456;-54
2021/01/24 10:32:42;;;;;;;3.97;2.00;;;435.40;896.00;;;;;;5057766;28;20382;-53
2021/01/24 10:35:08;;;;;;;5.82;3.47;;;435.20;921.60;;;;;;5075234;28;20024;-53
2021/01/24 10:37:35;;;;;;;6.65;2.45;;;410.40;921.60;;;;;;5075380;28;20378;-57
2021/01/24 10:40:02;;;;;;;5.00;2.30;;;410.40;921.60;;;;;;5073779;28;20020;-53
2021/01/24 10:42:27;;;;;;;6.93;2.50;;;410.20;921.60;;;;;;5079001;28;20048;-53
2021/01/24 10:44:53;;;;;;;6.10;2.58;;;410.10;921.60;;;;;;5085409;28;20044;-54
2021/01/24 10:47:20;;;;;;;4.78;2.08;;;410.20;921.60;;;;;;5078519;28;20386;-53
2021/01/24 10:49:45;;;;;;;4.32;1.85;;;410.00;921.60;;;;;;5075057;28;20025;-53
2021/01/24 10:52:11;;;;;;;3.83;2.20;;;409.90;947.20;;;;;;5081675;28;20024;-53
2021/01/24 10:54:37;;;;;;;7.43;2.70;;;409.90;947.20;;;;;;5080804;28;20029;-57
2021/01/24 10:57:03;;;;;;;8.48;3.40;;;409.80;947.20;;;;;;5079588;28;20499;-53
2021/01/24 10:59:29;;;;;;;7.50;3.20;;;409.80;947.20;;;;;;5082496;28;20478;-53
2021/01/24 11:01:55;;;;;;;5.80;3.13;;;409.90;1126.40;;;;;;5074003;28;20028;-53
2021/01/24 11:04:21;;;;;;;7.00;3.08;;;409.80;947.20;;;;;;5074341;28;20029;-54
2021/01/24 11:06:47;;;;;;;5.80;4.00;;;409.90;947.20;;;;;;5073624;28;20127;-54
2021/01/24 11:09:13;;;;;;;5.97;2.83;;;410.00;947.20;;;;;;5055748;28;20466;-54
2021/01/24 11:11:38;;;;;;;7.72;3.38;;;410.00;947.20;;;;;;5073382;28;20043;-53
2021/01/24 11:14:04;;;;;;;5.78;2.20;;;409.80;972.80;;;;;;5084401;28;20025;-53
2021/01/24 11:16:30;;;;;;;7.32;2.35;;;409.90;947.20;;;;;;5081888;28;20025;-54
2021/01/24 11:18:56;;;;;;;4.32;2.22;;;410.00;947.20;;;;;;5078616;28;20023;-54
2021/01/24 11:21:21;;;;;;;2.17;1.60;;;410.10;921.60;;;;;;5081426;28;20028;-53
2021/01/24 11:23:47;;;;;;;4.72;1.85;;;410.00;921.60;;;;;;5074997;28;20024;-53
2021/01/24 11:26:13;;;;;;;5.90;2.45;;;410.00;921.60;;;;;;5089400;28;20117;-53
2021/01/24 11:28:38;;;;;;;5.20;3.03;;;410.10;921.60;;;;;;5083810;28;20021;-54
2021/01/24 11:31:04;;;;;;;10.10;3.40;;;410.10;972.80;;;;;;5088501;28;20102;-53
2021/01/24 11:33:30;;;;;;;8.13;2.88;;;410.10;998.40;;;;;;5086458;28;20107;-54
2021/01/24 11:35:56;;;;;;;6.55;3.33;;;410.20;972.80;;;;;;5086153;28;20028;-53
2021/01/24 11:38:23;;;;;;;6.47;3.50;;;410.20;998.40;;;;;;5085673;28;20135;-53
2021/01/24 11:40:49;;;;;;;10.00;3.15;;;410.40;998.40;;;;;;5073053;28;20109;-55
2021/01/24 11:43:14;;;;;;;8.85;3.28;;;410.40;998.40;;;;;;5075238;28;20100;-53
2021/01/24 11:45:40;;;;;;;8.07;3.38;;;410.30;998.40;;;;;;5073994;28;20028;-54
2021/01/24 11:48:06;;;;;;;6.90;3.40;;;410.50;998.40;;;;;;5076121;28;20373;-54
2021/01/24 11:50:32;;;;;;;6.20;3.92;;;435.20;998.40;;;;;;5080503;28;20566;-54
2021/01/24 11:52:57;;;;;;;7.28;4.00;;;435.30;998.40;;;;;;5084159;28;20108;-55
2021/01/24 11:55:23;;;;;;;5.28;3.75;;;435.40;998.40;;;;;;5074037;28;20025;-54
2021/01/24 11:57:49;;;;;;;6.97;3.38;;;435.50;972.80;;;;;;5059717;28;20060;-54
2021/01/24 12:00:15;;;;;;;8.55;3.22;;;435.60;972.80;;;;;;5062154;28;20052;-54
2021/01/24 12:02:41;;;;;;;5.15;3.10;;;435.70;972.80;;;;;;5069487;28;20079;-54
2021/01/24 12:05:07;;;;;;;6.78;3.20;;;435.70;972.80;;;;;;5072965;28;20033;-54
2021/01/24 12:07:32;;;;;;;5.57;3.53;;;435.80;972.80;;;;;;5074723;28;20029;-58
2021/01/24 12:09:58;;;;;;;7.18;3.42;;;435.80;972.80;;;;;;5073204;28;20104;-54
2021/01/24 12:12:24;;;;;;;9.02;4.82;;;435.60;998.40;;;;;;5074456;28;20024;-54
2021/01/24 12:14:50;;;;;;;6.93;4.13;;;435.60;972.80;;;;;;5071371;28;20032;-53
2021/01/24 12:17:23;;;;;;;7.70;4.53;;;435.70;972.80;;;;;;5072362;28;20099;-53
2021/01/24 12:19:52;;;;;;;5.70;3.28;;;435.70;972.80;;;;;;5074504;28;20028;-52
2021/01/24 12:22:18;;;;;;;6.18;4.07;;;435.90;972.80;;;;;;5074385;28;20028;-52
2021/01/24 12:24:44;;;;;;;8.68;4.20;;;436.10;972.80;;;;;;5072544;28;20390;-53
2021/01/24 12:27:09;;;;;;;10.43;4.90;;;461.00;1100.80;;;;;;5072136;28;20024;-54
2021/01/24 12:29:35;;;;;;;10.07;4.38;;;436.00;947.20;;;;;;5080582;28;20021;-53